createdAt,value
2019-05-15T00:02:02.798Z,90.07
2019-05-15T00:04:34.087Z,90.18
2019-05-15T00:07:08.801Z,89.97
2019-05-15T00:09:41.921Z,90.13
2019-05-15T00:12:11.897Z,90.26
2019-05-15T00:14:44.147Z,90.49
2019-05-15T00:17:15.218Z,90.44
2019-05-15T00:19:48.453Z,90.33
2019-05-15T00:22:19.947Z,90.35
2019-05-15T00:24:51.151Z,90.41
2019-05-15T00:27:22.523Z,90.33
2019-05-15T00:29:53.867Z,90.20
2019-05-15T00:32:25.618Z,90.10
2019-05-15T00:34:58.288Z,90.13
2019-05-15T00:37:29.827Z,90.06
2019-05-15T00:40:01.229Z,89.70
2019-05-15T00:42:32.397Z,89.83
2019-05-15T00:45:03.367Z,89.74
2019-05-15T00:47:34.367Z,89.86
2019-05-15T00:50:05.699Z,89.58
2019-05-15T00:52:38.860Z,89.60
2019-05-15T00:55:10.868Z,89.66
2019-05-15T00:57:42.067Z,89.80
2019-05-15T01:00:13.187Z,89.77
2019-05-15T01:02:44.137Z,90.03
2019-05-15T01:05:15.387Z,90.17
2019-05-15T01:07:48.029Z,90.10
2019-05-15T01:10:19.352Z,90.12
2019-05-15T01:12:50.437Z,90.12
2019-05-15T01:15:21.529Z,90.31
2019-05-15T01:17:52.397Z,90.44
2019-05-15T01:20:23.767Z,90.50
2019-05-15T01:22:54.501Z,90.19
2019-05-15T01:25:25.447Z,90.42
2019-05-15T01:27:58.363Z,90.39
2019-05-15T01:30:29.057Z,90.66
2019-05-15T01:33:00.079Z,90.46
2019-05-15T01:35:31.087Z,90.34
2019-05-15T01:38:02.009Z,90.06
2019-05-15T01:40:33.967Z,90.53
2019-05-15T01:43:05.807Z,90.58
2019-05-15T01:45:39.081Z,90.66
2019-05-15T01:48:09.587Z,90.55
2019-05-15T01:50:40.677Z,90.43
2019-05-15T01:53:11.697Z,90.42
2019-05-15T01:55:42.827Z,90.54
2019-05-15T01:58:13.687Z,90.83
2019-05-15T02:00:44.897Z,90.70
2019-05-15T02:03:18.344Z,90.49
2019-05-15T02:05:49.607Z,90.49
2019-05-15T02:08:20.707Z,90.50
2019-05-15T02:10:52.887Z,90.56
2019-05-15T02:13:23.817Z,90.74
2019-05-15T02:15:55.007Z,90.77
2019-05-15T02:18:28.345Z,90.68
2019-05-15T02:20:58.822Z,90.56
2019-05-15T02:23:29.909Z,90.69
2019-05-15T02:26:00.847Z,90.55
2019-05-15T02:28:31.808Z,90.60
2019-05-15T02:31:02.900Z,90.67
2019-05-15T02:33:34.159Z,90.84
2019-05-15T02:36:05.087Z,90.83
2019-05-15T02:38:40.439Z,90.78
2019-05-15T02:41:10.133Z,90.94
2019-05-15T02:43:41.527Z,90.71
2019-05-15T02:46:12.515Z,90.47
2019-05-15T02:48:43.688Z,90.50
2019-05-15T02:51:14.552Z,90.72
2019-05-15T02:53:45.428Z,90.76
2019-05-15T02:56:20.025Z,90.75
2019-05-15T02:58:49.427Z,90.76
2019-05-15T03:01:20.837Z,90.99
2019-05-15T03:03:52.128Z,90.81
2019-05-15T03:06:23.302Z,90.64
2019-05-15T03:08:54.418Z,90.91
2019-05-15T03:11:25.667Z,90.90
2019-05-15T03:13:59.271Z,90.75
2019-05-15T03:16:30.561Z,90.88
2019-05-15T03:19:01.788Z,91.22
2019-05-15T03:21:33.283Z,91.20
2019-05-15T03:24:04.448Z,91.19
2019-05-15T03:26:35.662Z,91.23
2019-05-15T03:29:09.483Z,91.00
2019-05-15T03:31:56.713Z,91.26
2019-05-15T03:34:20.498Z,91.12
2019-05-15T03:36:45.840Z,91.19
2019-05-15T03:39:19.045Z,90.82
2019-05-15T03:41:50.150Z,90.75
2019-05-15T03:44:21.208Z,90.87
2019-05-15T03:46:52.329Z,90.72
2019-05-15T03:49:23.269Z,90.74
2019-05-15T03:51:54.168Z,90.74
2019-05-15T03:54:25.078Z,90.53
2019-05-15T03:56:58.330Z,90.42
2019-05-15T03:59:29.397Z,90.71
2019-05-15T04:02:00.748Z,90.68
2019-05-15T04:04:31.489Z,90.60
2019-05-15T04:07:03.008Z,91.02
2019-05-15T04:09:33.948Z,90.94
2019-05-15T04:12:04.819Z,90.60
2019-05-15T04:14:39.238Z,90.77
2019-05-15T04:17:09.138Z,90.64
2019-05-15T04:19:41.116Z,90.59
2019-05-15T04:22:12.629Z,90.61
2019-05-15T04:24:43.998Z,90.73
2019-05-15T04:27:14.979Z,90.82
2019-05-15T04:29:49.032Z,90.82
2019-05-15T04:32:20.071Z,90.54
2019-05-15T04:34:52.578Z,90.61
2019-05-15T04:37:23.366Z,90.48
2019-05-15T04:39:54.149Z,90.73
2019-05-15T04:42:24.927Z,90.57
2019-05-15T04:44:55.717Z,90.51
2019-05-15T04:47:30.211Z,90.51
2019-05-15T04:49:59.763Z,90.24
2019-05-15T04:52:30.934Z,90.30
2019-05-15T04:55:02.038Z,90.37
2019-05-15T04:57:34.498Z,90.26
2019-05-15T05:00:09.175Z,90.45
2019-05-15T05:02:40.019Z,90.41
2019-05-15T05:05:10.900Z,90.33
2019-05-15T05:07:42.707Z,90.42
2019-05-15T05:10:14.677Z,90.40
2019-05-15T05:12:50.560Z,90.49
2019-05-15T05:15:19.041Z,90.46
2019-05-15T05:17:50.308Z,90.40
2019-05-15T05:20:21.109Z,90.40
2019-05-15T05:22:51.969Z,90.65
2019-05-15T05:25:27.988Z,90.47
2019-05-15T05:27:58.898Z,90.38
2019-05-15T05:30:29.787Z,90.40
2019-05-15T05:33:00.648Z,90.41
2019-05-15T05:35:31.647Z,90.56
2019-05-15T05:38:02.627Z,90.60
2019-05-15T05:40:33.527Z,90.38
2019-05-15T05:43:04.607Z,90.39
2019-05-15T05:45:38.206Z,90.33
2019-05-15T05:48:08.894Z,90.10
2019-05-15T05:50:43.850Z,90.48
2019-05-15T05:53:13.277Z,90.41
2019-05-15T05:55:44.647Z,90.52
2019-05-15T05:58:15.657Z,90.57
2019-05-15T06:00:48.958Z,90.31
2019-05-15T06:03:20.060Z,90.36
2019-05-15T06:05:50.930Z,89.95
2019-05-15T06:08:21.728Z,89.91
2019-05-15T06:10:52.687Z,89.94
2019-05-15T06:13:23.756Z,90.13
2019-05-15T06:15:54.887Z,89.91
2019-05-15T06:18:28.126Z,90.04
2019-05-15T06:20:58.975Z,90.29
2019-05-15T06:23:34.581Z,90.20
2019-05-15T06:26:03.647Z,90.39
2019-05-15T06:28:35.151Z,90.51
2019-05-15T06:31:08.569Z,90.34
2019-05-15T06:33:38.949Z,89.95
2019-05-15T06:36:09.902Z,89.97
2019-05-15T06:38:41.041Z,90.05
2019-05-15T06:41:11.890Z,90.11
2019-05-15T06:43:42.907Z,90.14
2019-05-15T06:46:13.747Z,89.98
2019-05-15T06:48:44.687Z,89.90
2019-05-15T06:51:18.004Z,89.74
2019-05-15T06:53:49.226Z,89.62
2019-05-15T06:56:20.422Z,89.66
2019-05-15T06:58:51.223Z,89.77
2019-05-15T07:01:22.488Z,89.89
2019-05-15T07:03:53.329Z,89.95
2019-05-15T07:06:24.339Z,89.61
2019-05-15T07:08:58.537Z,89.81
2019-05-15T07:11:28.778Z,89.55
2019-05-15T07:13:59.539Z,89.48
2019-05-15T07:16:30.500Z,89.47
2019-05-15T07:19:01.388Z,89.61
2019-05-15T07:21:33.167Z,89.60
2019-05-15T07:24:04.257Z,89.06
2019-05-15T07:26:35.071Z,89.41
2019-05-15T07:29:07.911Z,89.35
2019-05-15T07:31:38.636Z,89.05
2019-05-15T07:34:09.468Z,89.01
2019-05-15T07:36:40.317Z,88.88
2019-05-15T07:39:11.190Z,88.51
2019-05-15T07:41:41.978Z,88.77
2019-05-15T07:44:13.657Z,88.52
2019-05-15T07:46:44.457Z,88.52
2019-05-15T07:49:15.149Z,88.39
2019-05-15T07:51:48.608Z,88.50
2019-05-15T07:54:18.597Z,88.39
2019-05-15T07:56:49.407Z,88.14
2019-05-15T07:59:20.267Z,88.31
2019-05-15T08:01:51.168Z,88.10
2019-05-15T08:04:28.749Z,88.10
2019-05-15T08:06:54.556Z,88.14
2019-05-15T08:09:28.261Z,88.11
2019-05-15T08:12:01.314Z,87.90
2019-05-15T08:14:31.147Z,87.86
2019-05-15T08:17:02.098Z,88.29
2019-05-15T08:19:32.899Z,88.09
2019-05-15T08:22:03.689Z,87.88
2019-05-15T08:24:34.608Z,88.10
2019-05-15T08:27:08.317Z,88.09
2019-05-15T08:29:39.468Z,87.85
2019-05-15T08:32:10.259Z,87.54
2019-05-15T08:34:41.167Z,87.71
2019-05-15T08:37:12.087Z,88.03
2019-05-15T08:39:42.947Z,87.71
2019-05-15T08:42:14.549Z,87.82
2019-05-15T08:44:45.427Z,88.00
2019-05-15T08:47:18.696Z,88.16
2019-05-15T08:49:48.653Z,88.31
2019-05-15T08:52:19.428Z,88.44
2019-05-15T08:54:50.162Z,88.52
2019-05-15T08:57:20.829Z,88.65
2019-05-15T08:59:51.735Z,88.54
2019-05-15T09:02:22.670Z,88.39
2019-05-15T09:04:53.548Z,88.41
2019-05-15T09:07:24.434Z,88.58
2019-05-15T09:09:55.248Z,88.55
2019-05-15T09:12:26.400Z,88.21
2019-05-15T09:14:58.208Z,88.40
2019-05-15T09:17:29.268Z,88.63
2019-05-15T09:20:00.168Z,88.55
2019-05-15T09:22:31.055Z,88.55
2019-05-15T09:25:01.728Z,88.69
2019-05-15T09:27:33.438Z,88.52
2019-05-15T09:30:04.597Z,88.35
2019-05-15T09:32:35.427Z,88.37
2019-05-15T09:35:08.309Z,88.51
2019-05-15T09:37:38.983Z,88.35
2019-05-15T09:40:10.167Z,88.28
2019-05-15T09:42:40.888Z,88.04
2019-05-15T09:45:12.194Z,87.87
2019-05-15T09:47:42.956Z,87.95
2019-05-15T09:50:13.828Z,87.76
2019-05-15T09:52:45.560Z,87.75
2019-05-15T09:55:18.017Z,87.60
2019-05-15T09:57:49.245Z,87.88
2019-05-15T10:00:20.350Z,87.68
2019-05-15T10:02:51.109Z,87.95
2019-05-15T10:05:22.028Z,87.69
2019-05-15T10:07:52.929Z,87.91
2019-05-15T10:10:24.638Z,87.96
2019-05-15T10:12:55.550Z,88.05
2019-05-15T10:15:26.678Z,88.21
2019-05-15T10:17:59.698Z,88.48
2019-05-15T10:20:29.918Z,88.08
2019-05-15T10:23:00.848Z,87.85
2019-05-15T10:25:31.708Z,87.79
2019-05-15T10:28:02.367Z,87.96
2019-05-15T10:30:34.161Z,88.02
2019-05-15T10:33:05.093Z,87.92
2019-05-15T10:35:36.008Z,88.21
2019-05-15T10:38:08.869Z,88.25
2019-05-15T10:40:44.366Z,88.13
2019-05-15T10:43:11.694Z,88.43
2019-05-15T10:45:43.422Z,88.51
2019-05-15T10:48:14.367Z,88.20
2019-05-15T10:50:45.227Z,87.95
2019-05-15T10:53:18.479Z,88.14
2019-05-15T10:55:49.505Z,87.84
2019-05-15T10:58:22.168Z,87.68
2019-05-15T11:00:53.387Z,87.92
2019-05-15T11:03:24.439Z,88.03
2019-05-15T11:05:55.261Z,88.24
2019-05-15T11:08:28.947Z,87.73
2019-05-15T11:10:58.728Z,87.33
2019-05-15T11:13:29.567Z,87.38
2019-05-15T11:16:00.468Z,87.27
2019-05-15T11:18:31.318Z,87.37
2019-05-15T11:21:02.309Z,87.46
2019-05-15T11:23:33.267Z,87.57
2019-05-15T11:26:05.052Z,87.65
2019-05-15T11:28:38.744Z,87.40
2019-05-15T11:31:10.399Z,87.17
2019-05-15T11:33:40.908Z,86.99
2019-05-15T11:36:11.767Z,87.31
2019-05-15T11:38:42.608Z,87.20
2019-05-15T11:41:13.577Z,86.91
2019-05-15T11:43:45.118Z,87.38
2019-05-15T11:46:18.417Z,87.23
2019-05-15T11:48:49.864Z,86.69
2019-05-15T11:51:22.050Z,87.00
2019-05-15T11:53:52.848Z,87.17
2019-05-15T11:56:24.757Z,86.40
2019-05-15T11:58:55.637Z,86.72
2019-05-15T12:01:28.634Z,86.62
2019-05-15T12:03:58.988Z,86.73
2019-05-15T12:06:31.087Z,86.97
2019-05-15T12:09:01.949Z,87.29
2019-05-15T12:11:37.341Z,86.69
2019-05-15T12:14:08.504Z,86.34
2019-05-15T12:16:40.187Z,86.03
2019-05-15T12:19:16.974Z,86.65
2019-05-15T12:21:44.589Z,86.08
2019-05-15T12:24:15.428Z,86.00
2019-05-15T12:26:48.931Z,86.12
2019-05-15T12:29:18.862Z,85.24
2019-05-15T12:31:49.788Z,84.87
2019-05-15T12:34:21.648Z,85.27
2019-05-15T12:39:29.500Z,83.81
2019-05-15T12:59:45.578Z,84.32
2019-05-15T13:02:18.704Z,84.87
2019-05-15T13:04:49.567Z,84.96
2019-05-15T13:07:20.587Z,85.05
2019-05-15T13:09:51.408Z,86.21
2019-05-15T13:12:23.221Z,85.38
2019-05-15T13:14:54.058Z,85.68
2019-05-15T13:17:25.597Z,85.61
2019-05-15T13:19:58.628Z,84.93
2019-05-15T13:22:29.014Z,85.00
2019-05-15T13:25:00.290Z,84.63
2019-05-15T13:27:31.800Z,85.82
2019-05-15T13:30:02.597Z,85.98
2019-05-15T13:32:33.308Z,85.72
2019-05-15T13:35:04.378Z,85.75
2019-05-15T13:37:35.109Z,85.91
2019-05-15T13:40:06.189Z,86.30
2019-05-15T13:42:39.020Z,86.16
2019-05-15T13:45:12.942Z,86.71
2019-05-15T13:47:42.287Z,86.67
2019-05-15T13:50:13.318Z,86.68
2019-05-15T13:52:44.178Z,86.80
2019-05-15T13:55:24.606Z,86.60
2019-05-15T13:57:48.867Z,86.74
2019-05-15T14:00:19.987Z,87.23
2019-05-15T14:02:52.357Z,86.65
2019-05-15T14:05:23.385Z,86.01
2019-05-15T14:07:54.282Z,86.14
2019-05-15T14:10:25.307Z,86.14
2019-05-15T14:12:58.379Z,86.95
2019-05-15T14:15:30.458Z,86.62
2019-05-15T14:18:01.244Z,86.63
2019-05-15T14:20:32.108Z,86.68
2019-05-15T14:23:02.990Z,86.44
2019-05-15T14:25:33.667Z,86.75
2019-05-15T14:28:04.638Z,86.50
2019-05-15T14:30:35.549Z,86.93
2019-05-15T14:33:08.484Z,87.13
2019-05-15T14:35:38.888Z,86.98
2019-05-15T14:38:10.510Z,87.40
2019-05-15T14:40:42.197Z,86.79
2019-05-15T14:43:13.048Z,86.43
2019-05-15T14:45:44.327Z,86.70
2019-05-15T14:48:15.262Z,87.15
2019-05-15T14:50:47.618Z,86.57
2019-05-15T14:53:18.841Z,87.15
2019-05-15T14:55:49.637Z,87.17
2019-05-15T14:58:20.620Z,86.93
2019-05-15T15:00:51.380Z,86.97
2019-05-15T15:03:22.327Z,86.90
2019-05-15T15:05:53.167Z,87.02
2019-05-15T15:08:25.341Z,87.00
2019-05-15T15:10:59.262Z,87.03
2019-05-15T15:13:29.867Z,87.67
2019-05-15T15:16:01.151Z,87.73
2019-05-15T15:18:32.147Z,87.93
2019-05-15T15:21:03.027Z,88.30
2019-05-15T15:23:33.897Z,88.32
2019-05-15T15:26:04.707Z,88.30
2019-05-15T15:28:35.628Z,87.88
2019-05-15T15:31:06.547Z,87.96
2019-05-15T15:33:39.187Z,88.18
2019-05-15T15:36:09.648Z,88.33
2019-05-15T15:38:43.989Z,88.41
2019-05-15T15:41:13.807Z,88.14
2019-05-15T15:43:44.629Z,88.21
2019-05-15T15:46:15.417Z,88.31
2019-05-15T15:48:48.227Z,88.36
2019-05-15T15:51:18.847Z,88.32
2019-05-15T15:53:49.727Z,88.25
2019-05-15T15:56:20.497Z,88.59
2019-05-15T15:58:51.407Z,88.25
2019-05-15T16:01:25.690Z,88.08
2019-05-15T16:03:54.698Z,88.07
2019-05-15T16:06:25.728Z,87.70
2019-05-15T16:08:56.500Z,87.54
2019-05-15T16:11:27.975Z,88.03
2019-05-15T16:13:59.898Z,88.09
2019-05-15T16:16:31.147Z,88.36
2019-05-15T16:19:01.927Z,88.49
2019-05-15T16:21:32.917Z,88.49
2019-05-15T16:24:16.671Z,88.55
2019-05-15T16:26:37.915Z,88.72
2019-05-15T16:29:09.219Z,88.57
2019-05-15T16:31:40.387Z,88.71
2019-05-15T16:34:11.357Z,89.01
2019-05-15T16:36:42.448Z,88.72
2019-05-15T16:39:13.170Z,88.60
2019-05-15T16:41:44.267Z,88.59
2019-05-15T16:44:22.473Z,88.76
2019-05-15T16:46:53.420Z,88.93
2019-05-15T16:49:24.237Z,88.88
2019-05-15T16:51:55.227Z,89.22
2019-05-15T16:54:28.707Z,89.18
2019-05-15T16:56:59.487Z,89.48
2019-05-15T16:59:35.722Z,89.17
2019-05-15T17:02:03.577Z,89.23
2019-05-15T17:04:34.307Z,89.30
2019-05-15T17:07:05.237Z,89.19
2019-05-15T17:09:38.299Z,89.56
2019-05-15T17:12:10.286Z,89.46
2019-05-15T17:14:41.027Z,89.37
2019-05-15T17:17:12.249Z,89.41
2019-05-15T17:19:58.003Z,89.58
2019-05-15T17:22:29.417Z,89.65
2019-05-15T17:25:45.617Z,89.40
2019-05-15T17:34:44.200Z,89.46
2019-05-15T17:37:38.068Z,89.65
2019-05-15T17:40:31.197Z,89.76
2019-05-15T17:43:18.255Z,89.63
2019-05-15T17:45:49.297Z,89.77
2019-05-15T17:48:23.757Z,90.07
2019-05-15T17:51:22.757Z,90.11
2019-05-15T17:53:58.161Z,89.90
2019-05-15T17:56:28.918Z,90.03
2019-05-15T17:58:59.710Z,89.85
2019-05-15T18:01:34.227Z,89.88
2019-05-15T18:04:08.425Z,89.80
2019-05-15T18:06:40.036Z,90.08
2019-05-15T18:09:12.668Z,90.31
2019-05-15T18:11:44.643Z,90.54
2019-05-15T18:14:15.507Z,90.66
2019-05-15T18:16:48.750Z,90.77
2019-05-15T18:19:19.227Z,90.74
2019-05-15T18:21:53.008Z,90.77
2019-05-15T18:24:24.107Z,91.08
2019-05-15T18:26:58.418Z,91.17
2019-05-15T18:29:29.187Z,91.29
2019-05-15T18:32:00.217Z,91.39
2019-05-15T18:34:30.977Z,91.47
2019-05-15T18:37:03.077Z,91.77
2019-05-15T18:39:34.497Z,91.69
2019-05-15T18:42:05.537Z,91.76
2019-05-15T18:44:36.620Z,91.92
2019-05-15T18:47:08.690Z,92.05
2019-05-15T18:49:39.739Z,92.16
2019-05-15T18:52:10.707Z,92.15
2019-05-15T18:54:41.507Z,92.11
2019-05-15T18:57:13.547Z,92.13
2019-05-15T18:59:44.527Z,92.22
2019-05-15T19:02:15.518Z,92.29
2019-05-15T19:04:48.889Z,92.44
2019-05-15T19:07:22.687Z,92.59
2019-05-15T19:09:53.748Z,92.56
2019-05-15T19:12:24.518Z,92.55
2019-05-15T19:14:55.538Z,92.55
2019-05-15T19:17:27.573Z,92.55
2019-05-15T19:19:59.028Z,92.75
2019-05-15T19:22:30.057Z,92.84
2019-05-15T19:25:04.437Z,92.77
2019-05-15T19:27:35.747Z,92.67
2019-05-15T19:30:08.289Z,92.61
2019-05-15T19:32:39.537Z,92.62
2019-05-15T19:35:10.558Z,92.55
2019-05-15T19:37:41.797Z,92.54
2019-05-15T19:40:13.247Z,92.40
2019-05-15T19:42:44.327Z,92.32
2019-05-15T19:45:15.797Z,92.40
2019-05-15T19:47:47.807Z,92.37
2019-05-15T19:50:20.748Z,92.48
2019-05-15T19:52:51.627Z,92.49
2019-05-15T19:55:22.668Z,92.68
2019-05-15T19:57:53.943Z,92.72
2019-05-15T20:00:25.247Z,92.83
2019-05-15T20:02:58.092Z,92.96
2019-05-15T20:05:29.242Z,92.91
2019-05-15T20:08:01.667Z,92.90
2019-05-15T20:10:32.697Z,93.01
2019-05-15T20:13:03.567Z,92.96
2019-05-15T20:15:34.928Z,92.87
2019-05-15T20:18:07.781Z,92.84
2019-05-15T20:20:38.741Z,92.82
2019-05-15T20:23:10.027Z,92.77
2019-05-15T20:25:40.898Z,92.74
2019-05-15T20:28:11.688Z,92.71
2019-05-15T20:30:42.787Z,92.65
2019-05-15T20:33:13.997Z,92.34
2019-05-15T20:35:44.927Z,92.41
2019-05-15T20:38:15.738Z,92.50
2019-05-15T20:40:48.569Z,92.59
2019-05-15T20:43:19.428Z,92.53
2019-05-15T20:45:50.397Z,92.37
2019-05-15T20:48:21.499Z,92.30
2019-05-15T20:50:52.788Z,92.25
2019-05-15T20:53:23.627Z,92.16
2019-05-15T20:55:54.467Z,92.14
2019-05-15T20:58:25.307Z,92.22
2019-05-15T21:00:58.851Z,92.24
2019-05-15T21:03:28.387Z,92.23
2019-05-15T21:06:01.407Z,92.23
2019-05-15T21:08:32.558Z,92.36
2019-05-15T21:11:03.297Z,92.36
2019-05-15T21:13:33.987Z,92.44
2019-05-15T21:16:04.947Z,92.54
2019-05-15T21:18:37.928Z,92.61
2019-05-15T21:21:10.479Z,92.81
2019-05-15T21:23:40.950Z,92.96
2019-05-15T21:26:11.868Z,93.01
2019-05-15T21:28:42.667Z,92.89
2019-05-15T21:31:13.907Z,92.81
2019-05-15T21:33:44.768Z,92.75
2019-05-15T21:36:19.451Z,92.74
2019-05-15T21:38:48.669Z,92.64
2019-05-15T21:41:19.717Z,92.78
2019-05-15T21:43:51.008Z,92.85
2019-05-15T21:46:22.011Z,93.05
2019-05-15T21:48:52.807Z,93.08
2019-05-15T21:51:23.557Z,93.10
2019-05-15T21:53:54.387Z,93.10
2019-05-15T21:56:25.272Z,93.08
2019-05-15T21:58:58.123Z,93.01
2019-05-15T22:01:28.866Z,93.08
2019-05-15T22:03:59.637Z,93.14
2019-05-15T22:06:30.698Z,93.24
2019-05-15T22:09:01.427Z,93.15
2019-05-15T22:11:33.797Z,93.10
2019-05-15T22:14:04.727Z,93.17
2019-05-15T22:16:35.529Z,93.27
2019-05-15T22:19:06.767Z,93.26
2019-05-15T22:21:40.459Z,93.25
2019-05-15T22:24:10.099Z,93.21
2019-05-15T22:26:41.057Z,93.16
2019-05-15T22:29:12.027Z,93.03
2019-05-15T22:31:42.927Z,93.21
2019-05-15T22:34:13.787Z,93.28
2019-05-15T22:36:45.028Z,93.29
2019-05-15T22:39:15.777Z,93.33
2019-05-15T22:41:47.891Z,93.29
2019-05-15T22:44:19.285Z,93.57
2019-05-15T22:46:50.267Z,93.56
2019-05-15T22:49:21.099Z,93.63
2019-05-15T22:51:52.029Z,93.98
2019-05-15T22:54:22.728Z,94.09
2019-05-15T22:56:53.487Z,94.19
2019-05-15T22:59:24.827Z,94.09
2019-05-15T23:01:58.194Z,94.03
2019-05-15T23:04:29.188Z,94.03
2019-05-15T23:07:00.057Z,93.95
2019-05-15T23:09:31.028Z,93.90
2019-05-15T23:12:02.103Z,93.86
2019-05-15T23:14:32.907Z,93.77
2019-05-15T23:17:03.667Z,93.70
2019-05-15T23:19:34.808Z,93.85
2019-05-15T23:22:08.169Z,93.82
2019-05-15T23:24:38.809Z,93.92
2019-05-15T23:27:09.547Z,93.87
2019-05-15T23:29:40.887Z,93.79
2019-05-15T23:32:12.307Z,93.84
2019-05-15T23:34:43.057Z,93.95
2019-05-15T23:37:13.789Z,94.06
2019-05-15T23:39:44.657Z,94.08
2019-05-15T23:42:15.478Z,94.08
2019-05-15T23:44:48.576Z,94.14
2019-05-15T23:47:19.088Z,94.20
2019-05-15T23:49:49.827Z,94.21
2019-05-15T23:52:20.717Z,94.22
2019-05-15T23:54:52.033Z,94.24
2019-05-15T23:57:23.041Z,94.18
2019-05-15T23:59:54.117Z,94.14
